sensor_id;sensor_type;location;lat;lon;timestamp;P1;durP1;ratioP1;P2;durP2;ratioP2
71288;SDS011;59068;52.502;9.860;2023-03-01T00:01:57;4.68;;;3.67;;
71288;SDS011;59068;52.502;9.860;2023-03-01T00:04:23;4.00;;;2.83;;
71288;SDS011;59068;52.502;9.860;2023-03-01T00:06:48;5.43;;;3.43;;
71288;SDS011;59068;52.502;9.860;2023-03-01T00:09:14;3.83;;;3.43;;
71288;SDS011;59068;52.502;9.860;2023-03-01T00:11:40;3.38;;;3.08;;
71288;SDS011;59068;52.502;9.860;2023-03-01T00:14:05;4.20;;;3.63;;
71288;SDS011;59068;52.502;9.860;2023-03-01T00:16:32;4.70;;;3.33;;
71288;SDS011;59068;52.502;9.860;2023-03-01T00:18:59;4.05;;;3.67;;
71288;SDS011;59068;52.502;9.860;2023-03-01T00:21:25;5.60;;;3.73;;
71288;SDS011;59068;52.502;9.860;2023-03-01T00:23:50;4.97;;;3.60;;
71288;SDS011;59068;52.502;9.860;2023-03-01T00:26:17;4.00;;;3.47;;
71288;SDS011;59068;52.502;9.860;2023-03-01T00:28:44;5.13;;;3.50;;
71288;SDS011;59068;52.502;9.860;2023-03-01T00:31:11;5.57;;;3.70;;
71288;SDS011;59068;52.502;9.860;2023-03-01T00:33:38;5.60;;;4.32;;
71288;SDS011;59068;52.502;9.860;2023-03-01T00:36:04;6.60;;;4.07;;
71288;SDS011;59068;52.502;9.860;2023-03-01T00:38:29;4.43;;;3.53;;
71288;SDS011;59068;52.502;9.860;2023-03-01T00:40:55;5.83;;;4.07;;
71288;SDS011;59068;52.502;9.860;2023-03-01T00:43:20;5.00;;;3.70;;
71288;SDS011;59068;52.502;9.860;2023-03-01T00:45:46;5.13;;;4.27;;
71288;SDS011;59068;52.502;9.860;2023-03-01T00:48:11;6.47;;;3.60;;
71288;SDS011;59068;52.502;9.860;2023-03-01T00:50:36;5.13;;;4.13;;
71288;SDS011;59068;52.502;9.860;2023-03-01T00:53:02;6.13;;;4.30;;
71288;SDS011;59068;52.502;9.860;2023-03-01T00:55:27;5.57;;;4.00;;
71288;SDS011;59068;52.502;9.860;2023-03-01T00:57:52;6.50;;;4.53;;
71288;SDS011;59068;52.502;9.860;2023-03-01T01:00:18;6.37;;;4.40;;
71288;SDS011;59068;52.502;9.860;2023-03-01T01:02:44;5.97;;;4.65;;
71288;SDS011;59068;52.502;9.860;2023-03-01T01:05:10;9.45;;;4.30;;
71288;SDS011;59068;52.502;9.860;2023-03-01T01:07:36;4.83;;;4.27;;
71288;SDS011;59068;52.502;9.860;2023-03-01T01:10:02;4.50;;;4.07;;
71288;SDS011;59068;52.502;9.860;2023-03-01T01:12:27;6.47;;;3.93;;
71288;SDS011;59068;52.502;9.860;2023-03-01T01:14:53;4.67;;;4.13;;
71288;SDS011;59068;52.502;9.860;2023-03-01T01:17:18;4.70;;;3.80;;
71288;SDS011;59068;52.502;9.860;2023-03-01T01:19:43;4.53;;;3.90;;
71288;SDS011;59068;52.502;9.860;2023-03-01T01:22:09;5.23;;;3.97;;
71288;SDS011;59068;52.502;9.860;2023-03-01T01:24:34;5.23;;;3.50;;
71288;SDS011;59068;52.502;9.860;2023-03-01T01:27:00;4.50;;;3.30;;
71288;SDS011;59068;52.502;9.860;2023-03-01T01:29:25;4.03;;;3.63;;
71288;SDS011;59068;52.502;9.860;2023-03-01T01:31:50;4.20;;;3.17;;
71288;SDS011;59068;52.502;9.860;2023-03-01T01:34:17;3.97;;;3.00;;
71288;SDS011;59068;52.502;9.860;2023-03-01T01:36:47;4.20;;;3.60;;
71288;SDS011;59068;52.502;9.860;2023-03-01T01:39:13;3.90;;;3.15;;
71288;SDS011;59068;52.502;9.860;2023-03-01T01:41:39;4.70;;;3.23;;
71288;SDS011;59068;52.502;9.860;2023-03-01T01:46:39;6.60;;;3.50;;
71288;SDS011;59068;52.502;9.860;2023-03-01T01:49:16;4.00;;;3.47;;
71288;SDS011;59068;52.502;9.860;2023-03-01T01:51:54;4.32;;;3.33;;
71288;SDS011;59068;52.502;9.860;2023-03-01T01:54:29;3.63;;;2.90;;
71288;SDS011;59068;52.502;9.860;2023-03-01T01:57:00;3.58;;;3.17;;
71288;SDS011;59068;52.502;9.860;2023-03-01T01:59:28;3.38;;;2.90;;
71288;SDS011;59068;52.502;9.860;2023-03-01T02:01:55;4.50;;;3.15;;
71288;SDS011;59068;52.502;9.860;2023-03-01T02:04:21;4.53;;;3.37;;
71288;SDS011;59068;52.502;9.860;2023-03-01T02:06:51;3.80;;;2.97;;
71288;SDS011;59068;52.502;9.860;2023-03-01T02:09:21;4.03;;;3.05;;
71288;SDS011;59068;52.502;9.860;2023-03-01T02:11:48;4.70;;;3.65;;
71288;SDS011;59068;52.502;9.860;2023-03-01T02:14:14;3.67;;;3.37;;
71288;SDS011;59068;52.502;9.860;2023-03-01T02:16:40;3.30;;;3.00;;
71288;SDS011;59068;52.502;9.860;2023-03-01T02:19:06;4.60;;;3.20;;
71288;SDS011;59068;52.502;9.860;2023-03-01T02:21:37;3.70;;;3.40;;
71288;SDS011;59068;52.502;9.860;2023-03-01T02:24:14;3.67;;;2.88;;
71288;SDS011;59068;52.502;9.860;2023-03-01T02:26:48;3.97;;;3.58;;
71288;SDS011;59068;52.502;9.860;2023-03-01T02:29:15;3.38;;;2.90;;
71288;SDS011;59068;52.502;9.860;2023-03-01T02:31:40;4.40;;;2.97;;
71288;SDS011;59068;52.502;9.860;2023-03-01T02:34:14;4.82;;;3.15;;
71288;SDS011;59068;52.502;9.860;2023-03-01T02:36:43;4.43;;;2.95;;
71288;SDS011;59068;52.502;9.860;2023-03-01T02:39:12;3.45;;;2.85;;
71288;SDS011;59068;52.502;9.860;2023-03-01T02:41:45;3.15;;;2.72;;
71288;SDS011;59068;52.502;9.860;2023-03-01T02:44:13;3.10;;;2.75;;
71288;SDS011;59068;52.502;9.860;2023-03-01T02:46:57;3.77;;;3.03;;
71288;SDS011;59068;52.502;9.860;2023-03-01T02:49:27;2.85;;;2.63;;
71288;SDS011;59068;52.502;9.860;2023-03-01T02:55:06;5.38;;;2.88;;
71288;SDS011;59068;52.502;9.860;2023-03-01T02:57:34;2.97;;;2.50;;
71288;SDS011;59068;52.502;9.860;2023-03-01T03:00:12;4.03;;;3.20;;
71288;SDS011;59068;52.502;9.860;2023-03-01T03:02:44;3.70;;;2.45;;
71288;SDS011;59068;52.502;9.860;2023-03-01T03:05:15;3.28;;;2.97;;
71288;SDS011;59068;52.502;9.860;2023-03-01T03:07:43;3.63;;;2.92;;
71288;SDS011;59068;52.502;9.860;2023-03-01T03:10:29;3.50;;;2.85;;
71288;SDS011;59068;52.502;9.860;2023-03-01T03:12:57;3.95;;;2.60;;
71288;SDS011;59068;52.502;9.860;2023-03-01T03:15:24;4.85;;;3.20;;
71288;SDS011;59068;52.502;9.860;2023-03-01T03:17:50;2.90;;;2.70;;
71288;SDS011;59068;52.502;9.860;2023-03-01T03:20:17;3.33;;;3.00;;
71288;SDS011;59068;52.502;9.860;2023-03-01T03:22:44;3.50;;;3.10;;
71288;SDS011;59068;52.502;9.860;2023-03-01T03:25:11;3.58;;;2.78;;
71288;SDS011;59068;52.502;9.860;2023-03-01T03:27:40;3.43;;;3.13;;
71288;SDS011;59068;52.502;9.860;2023-03-01T03:30:09;6.82;;;3.40;;
71288;SDS011;59068;52.502;9.860;2023-03-01T03:32:37;3.92;;;2.78;;
71288;SDS011;59068;52.502;9.860;2023-03-01T03:35:04;3.00;;;2.70;;
71288;SDS011;59068;52.502;9.860;2023-03-01T03:37:35;3.38;;;2.67;;
71288;SDS011;59068;52.502;9.860;2023-03-01T03:40:20;3.00;;;2.70;;
71288;SDS011;59068;52.502;9.860;2023-03-01T03:42:45;4.67;;;3.23;;
71288;SDS011;59068;52.502;9.860;2023-03-01T03:45:10;4.40;;;3.03;;
71288;SDS011;59068;52.502;9.860;2023-03-01T03:47:36;3.90;;;2.87;;
71288;SDS011;59068;52.502;9.860;2023-03-01T03:50:01;3.23;;;2.67;;
71288;SDS011;59068;52.502;9.860;2023-03-01T03:52:26;3.77;;;2.73;;
71288;SDS011;59068;52.502;9.860;2023-03-01T03:54:52;2.70;;;2.50;;
71288;SDS011;59068;52.502;9.860;2023-03-01T03:57:17;3.63;;;3.10;;
71288;SDS011;59068;52.502;9.860;2023-03-01T03:59:42;3.43;;;2.73;;
71288;SDS011;59068;52.502;9.860;2023-03-01T04:02:08;3.37;;;2.97;;
71288;SDS011;59068;52.502;9.860;2023-03-01T04:04:33;3.47;;;2.73;;
71288;SDS011;59068;52.502;9.860;2023-03-01T04:06:59;3.57;;;2.60;;
71288;SDS011;59068;52.502;9.860;2023-03-01T04:09:24;3.50;;;3.00;;
71288;SDS011;59068;52.502;9.860;2023-03-01T04:11:49;3.83;;;2.63;;
71288;SDS011;59068;52.502;9.860;2023-03-01T04:14:15;4.03;;;3.17;;
71288;SDS011;59068;52.502;9.860;2023-03-01T04:16:40;2.97;;;2.53;;
71288;SDS011;59068;52.502;9.860;2023-03-01T04:19:05;5.23;;;3.10;;
71288;SDS011;59068;52.502;9.860;2023-03-01T04:21:31;4.07;;;2.63;;
71288;SDS011;59068;52.502;9.860;2023-03-01T04:23:56;3.23;;;2.63;;
71288;SDS011;59068;52.502;9.860;2023-03-01T04:26:22;4.83;;;3.50;;
71288;SDS011;59068;52.502;9.860;2023-03-01T04:28:47;5.50;;;3.30;;
71288;SDS011;59068;52.502;9.860;2023-03-01T04:31:15;4.10;;;3.10;;
71288;SDS011;59068;52.502;9.860;2023-03-01T04:33:46;4.57;;;2.90;;
71288;SDS011;59068;52.502;9.860;2023-03-01T04:36:14;3.78;;;2.67;;
71288;SDS011;59068;52.502;9.860;2023-03-01T04:38:41;4.15;;;2.85;;
71288;SDS011;59068;52.502;9.860;2023-03-01T04:41:07;3.83;;;2.90;;
71288;SDS011;59068;52.502;9.860;2023-03-01T04:43:34;3.70;;;3.08;;
71288;SDS011;59068;52.502;9.860;2023-03-01T04:46:02;3.40;;;2.90;;
71288;SDS011;59068;52.502;9.860;2023-03-01T04:48:31;5.18;;;3.13;;
71288;SDS011;59068;52.502;9.860;2023-03-01T04:50:57;3.33;;;3.03;;
71288;SDS011;59068;52.502;9.860;2023-03-01T04:53:23;3.97;;;2.67;;
71288;SDS011;59068;52.502;9.860;2023-03-01T04:55:49;4.35;;;3.13;;
71288;SDS011;59068;52.502;9.860;2023-03-01T04:58:15;3.47;;;3.10;;
71288;SDS011;59068;52.502;9.860;2023-03-01T05:00:40;4.13;;;3.03;;
71288;SDS011;59068;52.502;9.860;2023-03-01T05:03:05;3.93;;;2.90;;
71288;SDS011;59068;52.502;9.860;2023-03-01T05:05:32;4.80;;;3.10;;
71288;SDS011;59068;52.502;9.860;2023-03-01T05:08:00;3.80;;;3.03;;
71288;SDS011;59068;52.502;9.860;2023-03-01T05:10:28;4.57;;;3.03;;
71288;SDS011;59068;52.502;9.860;2023-03-01T05:12:58;3.17;;;2.88;;
71288;SDS011;59068;52.502;9.860;2023-03-01T05:15:24;3.67;;;3.10;;
71288;SDS011;59068;52.502;9.860;2023-03-01T05:17:54;3.30;;;3.00;;
71288;SDS011;59068;52.502;9.860;2023-03-01T05:20:21;5.50;;;3.30;;
71288;SDS011;59068;52.502;9.860;2023-03-01T05:22:50;4.60;;;3.13;;
71288;SDS011;59068;52.502;9.860;2023-03-01T05:25:16;4.25;;;3.35;;
71288;SDS011;59068;52.502;9.860;2023-03-01T05:27:41;4.80;;;3.30;;
71288;SDS011;59068;52.502;9.860;2023-03-01T05:30:07;3.77;;;2.60;;
71288;SDS011;59068;52.502;9.860;2023-03-01T05:32:46;3.80;;;3.00;;
71288;SDS011;59068;52.502;9.860;2023-03-01T05:35:14;5.28;;;3.10;;
71288;SDS011;59068;52.502;9.860;2023-03-01T05:37:41;4.72;;;3.20;;
71288;SDS011;59068;52.502;9.860;2023-03-01T05:40:11;4.40;;;3.20;;
71288;SDS011;59068;52.502;9.860;2023-03-01T05:42:51;3.50;;;3.03;;
71288;SDS011;59068;52.502;9.860;2023-03-01T05:45:22;4.03;;;2.50;;
71288;SDS011;59068;52.502;9.860;2023-03-01T05:47:48;3.80;;;2.92;;
71288;SDS011;59068;52.502;9.860;2023-03-01T05:50:16;5.18;;;3.17;;
71288;SDS011;59068;52.502;9.860;2023-03-01T05:52:47;4.10;;;3.00;;
71288;SDS011;59068;52.502;9.860;2023-03-01T05:55:14;4.75;;;3.28;;
71288;SDS011;59068;52.502;9.860;2023-03-01T05:57:43;3.92;;;2.53;;
71288;SDS011;59068;52.502;9.860;2023-03-01T06:00:09;4.77;;;3.17;;
71288;SDS011;59068;52.502;9.860;2023-03-01T06:02:36;4.93;;;3.58;;
71288;SDS011;59068;52.502;9.860;2023-03-01T06:05:01;3.57;;;3.20;;
71288;SDS011;59068;52.502;9.860;2023-03-01T06:07:27;3.83;;;3.53;;
71288;SDS011;59068;52.502;9.860;2023-03-01T06:09:52;3.57;;;3.13;;
71288;SDS011;59068;52.502;9.860;2023-03-01T06:12:18;4.30;;;3.37;;
71288;SDS011;59068;52.502;9.860;2023-03-01T06:14:44;4.90;;;3.73;;
71288;SDS011;59068;52.502;9.860;2023-03-01T06:17:10;3.97;;;3.22;;
71288;SDS011;59068;52.502;9.860;2023-03-01T06:19:35;4.00;;;3.23;;
71288;SDS011;59068;52.502;9.860;2023-03-01T06:22:01;3.97;;;3.47;;
71288;SDS011;59068;52.502;9.860;2023-03-01T06:24:26;3.87;;;3.47;;
71288;SDS011;59068;52.502;9.860;2023-03-01T06:26:53;5.30;;;3.55;;
71288;SDS011;59068;52.502;9.860;2023-03-01T06:29:19;4.30;;;3.93;;
71288;SDS011;59068;52.502;9.860;2023-03-01T06:31:44;5.33;;;3.33;;
71288;SDS011;59068;52.502;9.860;2023-03-01T06:34:10;4.30;;;3.00;;
71288;SDS011;59068;52.502;9.860;2023-03-01T06:36:38;3.70;;;3.33;;
71288;SDS011;59068;52.502;9.860;2023-03-01T06:39:04;7.00;;;3.70;;
71288;SDS011;59068;52.502;9.860;2023-03-01T06:41:30;4.17;;;3.53;;
71288;SDS011;59068;52.502;9.860;2023-03-01T06:43:56;3.72;;;3.40;;
71288;SDS011;59068;52.502;9.860;2023-03-01T06:46:21;6.97;;;4.10;;
71288;SDS011;59068;52.502;9.860;2023-03-01T06:48:47;5.40;;;3.83;;
71288;SDS011;59068;52.502;9.860;2023-03-01T06:51:12;5.93;;;3.80;;
71288;SDS011;59068;52.502;9.860;2023-03-01T06:53:37;4.53;;;3.47;;
71288;SDS011;59068;52.502;9.860;2023-03-01T06:56:03;5.97;;;4.13;;
71288;SDS011;59068;52.502;9.860;2023-03-01T06:58:28;5.03;;;3.37;;
71288;SDS011;59068;52.502;9.860;2023-03-01T07:00:54;5.93;;;4.03;;
71288;SDS011;59068;52.502;9.860;2023-03-01T07:03:19;6.37;;;4.60;;
71288;SDS011;59068;52.502;9.860;2023-03-01T07:05:45;7.37;;;4.30;;
71288;SDS011;59068;52.502;9.860;2023-03-01T07:08:10;7.93;;;4.97;;
71288;SDS011;59068;52.502;9.860;2023-03-01T07:10:35;6.10;;;4.40;;
71288;SDS011;59068;52.502;9.860;2023-03-01T07:13:01;8.30;;;4.80;;
71288;SDS011;59068;52.502;9.860;2023-03-01T07:15:26;5.73;;;4.13;;
71288;SDS011;59068;52.502;9.860;2023-03-01T07:17:52;7.83;;;4.57;;
71288;SDS011;59068;52.502;9.860;2023-03-01T07:20:18;6.93;;;4.60;;
71288;SDS011;59068;52.502;9.860;2023-03-01T07:22:46;5.60;;;4.40;;
71288;SDS011;59068;52.502;9.860;2023-03-01T07:25:11;5.80;;;4.13;;
71288;SDS011;59068;52.502;9.860;2023-03-01T07:27:36;5.40;;;4.70;;
71288;SDS011;59068;52.502;9.860;2023-03-01T07:30:02;8.43;;;5.93;;
71288;SDS011;59068;52.502;9.860;2023-03-01T07:32:28;6.45;;;5.03;;
71288;SDS011;59068;52.502;9.860;2023-03-01T07:34:53;7.77;;;5.20;;
71288;SDS011;59068;52.502;9.860;2023-03-01T07:37:18;7.60;;;5.67;;
71288;SDS011;59068;52.502;9.860;2023-03-01T07:39:44;5.73;;;5.20;;
71288;SDS011;59068;52.502;9.860;2023-03-01T07:42:09;6.43;;;5.50;;
71288;SDS011;59068;52.502;9.860;2023-03-01T07:44:35;6.70;;;5.07;;
71288;SDS011;59068;52.502;9.860;2023-03-01T07:47:00;7.07;;;5.30;;
71288;SDS011;59068;52.502;9.860;2023-03-01T07:49:26;7.00;;;6.30;;
71288;SDS011;59068;52.502;9.860;2023-03-01T07:51:52;7.40;;;5.97;;
71288;SDS011;59068;52.502;9.860;2023-03-01T07:54:17;8.70;;;6.37;;
71288;SDS011;59068;52.502;9.860;2023-03-01T07:56:43;9.73;;;6.73;;
71288;SDS011;59068;52.502;9.860;2023-03-01T07:59:08;8.13;;;6.60;;
71288;SDS011;59068;52.502;9.860;2023-03-01T08:01:34;9.50;;;6.40;;
71288;SDS011;59068;52.502;9.860;2023-03-01T08:03:59;6.73;;;5.90;;
71288;SDS011;59068;52.502;9.860;2023-03-01T08:06:24;8.47;;;6.07;;
71288;SDS011;59068;52.502;9.860;2023-03-01T08:08:50;7.23;;;6.27;;
71288;SDS011;59068;52.502;9.860;2023-03-01T08:11:15;8.57;;;6.40;;
71288;SDS011;59068;52.502;9.860;2023-03-01T08:13:41;8.70;;;5.83;;
71288;SDS011;59068;52.502;9.860;2023-03-01T08:16:09;8.05;;;6.80;;
71288;SDS011;59068;52.502;9.860;2023-03-01T08:18:37;6.78;;;5.97;;
71288;SDS011;59068;52.502;9.860;2023-03-01T08:21:06;6.65;;;4.97;;
71288;SDS011;59068;52.502;9.860;2023-03-01T08:23:33;5.80;;;5.20;;
71288;SDS011;59068;52.502;9.860;2023-03-01T08:28:34;6.57;;;5.13;;
71288;SDS011;59068;52.502;9.860;2023-03-01T08:31:00;6.20;;;5.20;;
71288;SDS011;59068;52.502;9.860;2023-03-01T08:33:25;7.53;;;5.63;;
71288;SDS011;59068;52.502;9.860;2023-03-01T08:35:51;6.73;;;6.03;;
71288;SDS011;59068;52.502;9.860;2023-03-01T08:38:16;7.73;;;6.93;;
71288;SDS011;59068;52.502;9.860;2023-03-01T08:40:41;7.63;;;6.83;;
71288;SDS011;59068;52.502;9.860;2023-03-01T08:43:07;7.73;;;6.83;;
71288;SDS011;59068;52.502;9.860;2023-03-01T08:45:32;8.03;;;6.40;;
71288;SDS011;59068;52.502;9.860;2023-03-01T08:47:57;13.33;;;9.10;;
71288;SDS011;59068;52.502;9.860;2023-03-01T08:50:23;8.23;;;7.33;;
71288;SDS011;59068;52.502;9.860;2023-03-01T08:52:49;9.57;;;6.78;;
71288;SDS011;59068;52.502;9.860;2023-03-01T08:55:15;8.40;;;6.32;;
71288;SDS011;59068;52.502;9.860;2023-03-01T08:57:42;9.23;;;6.13;;
71288;SDS011;59068;52.502;9.860;2023-03-01T09:00:08;8.17;;;6.03;;
71288;SDS011;59068;52.502;9.860;2023-03-01T09:02:34;7.57;;;5.13;;
71288;SDS011;59068;52.502;9.860;2023-03-01T09:04:59;7.83;;;5.60;;
71288;SDS011;59068;52.502;9.860;2023-03-01T09:07:26;6.77;;;5.60;;
71288;SDS011;59068;52.502;9.860;2023-03-01T09:09:53;8.02;;;5.35;;
71288;SDS011;59068;52.502;9.860;2023-03-01T09:12:19;7.33;;;5.50;;
71288;SDS011;59068;52.502;9.860;2023-03-01T09:14:45;7.90;;;5.50;;
71288;SDS011;59068;52.502;9.860;2023-03-01T09:17:10;5.90;;;4.93;;
71288;SDS011;59068;52.502;9.860;2023-03-01T09:19:35;7.03;;;5.30;;
71288;SDS011;59068;52.502;9.860;2023-03-01T09:22:02;7.23;;;5.13;;
71288;SDS011;59068;52.502;9.860;2023-03-01T09:24:28;4.75;;;4.20;;
71288;SDS011;59068;52.502;9.860;2023-03-01T09:26:54;6.20;;;4.83;;
71288;SDS011;59068;52.502;9.860;2023-03-01T09:29:20;5.10;;;3.97;;
71288;SDS011;59068;52.502;9.860;2023-03-01T09:31:46;6.03;;;4.27;;
71288;SDS011;59068;52.502;9.860;2023-03-01T09:34:11;5.50;;;4.30;;
71288;SDS011;59068;52.502;9.860;2023-03-01T09:36:38;5.97;;;4.43;;
71288;SDS011;59068;52.502;9.860;2023-03-01T09:39:04;4.87;;;3.83;;
71288;SDS011;59068;52.502;9.860;2023-03-01T09:46:47;4.60;;;3.80;;
71288;SDS011;59068;52.502;9.860;2023-03-01T09:49:20;5.63;;;3.70;;
71288;SDS011;59068;52.502;9.860;2023-03-01T09:51:59;5.43;;;3.33;;
71288;SDS011;59068;52.502;9.860;2023-03-01T09:54:26;4.17;;;3.40;;
71288;SDS011;59068;52.502;9.860;2023-03-01T09:57:04;6.17;;;3.63;;
71288;SDS011;59068;52.502;9.860;2023-03-01T10:04:59;5.43;;;3.60;;
71288;SDS011;59068;52.502;9.860;2023-03-01T10:08:25;4.03;;;3.40;;
71288;SDS011;59068;52.502;9.860;2023-03-01T10:10:33;5.17;;;4.10;;
71288;SDS011;59068;52.502;9.860;2023-03-01T10:13:03;5.13;;;3.20;;
71288;SDS011;59068;52.502;9.860;2023-03-01T10:15:42;4.27;;;3.87;;
71288;SDS011;59068;52.502;9.860;2023-03-01T10:18:13;3.30;;;2.93;;
71288;SDS011;59068;52.502;9.860;2023-03-01T10:20:43;3.63;;;3.23;;
71288;SDS011;59068;52.502;9.860;2023-03-01T10:23:11;3.83;;;3.13;;
71288;SDS011;59068;52.502;9.860;2023-03-01T10:28:20;4.00;;;3.37;;
71288;SDS011;59068;52.502;9.860;2023-03-01T10:31:08;4.93;;;3.23;;
71288;SDS011;59068;52.502;9.860;2023-03-01T10:33:37;4.07;;;3.57;;
71288;SDS011;59068;52.502;9.860;2023-03-01T10:36:04;4.80;;;3.07;;
71288;SDS011;59068;52.502;9.860;2023-03-01T10:38:31;3.03;;;2.73;;
71288;SDS011;59068;52.502;9.860;2023-03-01T10:41:12;3.90;;;3.30;;
71288;SDS011;59068;52.502;9.860;2023-03-01T10:43:45;3.50;;;2.73;;
71288;SDS011;59068;52.502;9.860;2023-03-01T10:46:25;3.80;;;2.90;;
71288;SDS011;59068;52.502;9.860;2023-03-01T10:51:38;2.77;;;2.50;;
71288;SDS011;59068;52.502;9.860;2023-03-01T10:54:05;3.93;;;2.80;;
71288;SDS011;59068;52.502;9.860;2023-03-01T10:56:50;3.50;;;2.93;;
71288;SDS011;59068;52.502;9.860;2023-03-01T10:59:26;4.23;;;3.33;;
71288;SDS011;59068;52.502;9.860;2023-03-01T11:04:58;2.77;;;2.40;;
71288;SDS011;59068;52.502;9.860;2023-03-01T11:07:26;3.83;;;3.30;;
71288;SDS011;59068;52.502;9.860;2023-03-01T11:09:51;4.00;;;2.70;;
71288;SDS011;59068;52.502;9.860;2023-03-01T11:12:17;4.20;;;3.17;;
71288;SDS011;59068;52.502;9.860;2023-03-01T11:14:49;3.90;;;2.80;;
71288;SDS011;59068;52.502;9.860;2023-03-01T11:20:05;3.67;;;2.20;;
71288;SDS011;59068;52.502;9.860;2023-03-01T11:22:42;4.00;;;2.30;;
71288;SDS011;59068;52.502;9.860;2023-03-01T11:25:13;4.57;;;2.23;;
71288;SDS011;59068;52.502;9.860;2023-03-01T11:27:40;4.07;;;2.30;;
71288;SDS011;59068;52.502;9.860;2023-03-01T11:35:53;3.37;;;2.70;;
71288;SDS011;59068;52.502;9.860;2023-03-01T11:38:25;2.30;;;2.10;;
71288;SDS011;59068;52.502;9.860;2023-03-01T11:48:59;3.50;;;2.27;;
71288;SDS011;59068;52.502;9.860;2023-03-01T11:54:20;3.50;;;2.60;;
71288;SDS011;59068;52.502;9.860;2023-03-01T11:57:04;2.90;;;2.33;;
71288;SDS011;59068;52.502;9.860;2023-03-01T11:59:51;3.83;;;2.47;;
71288;SDS011;59068;52.502;9.860;2023-03-01T12:02:47;2.47;;;2.27;;
71288;SDS011;59068;52.502;9.860;2023-03-01T12:05:28;2.80;;;2.60;;
71288;SDS011;59068;52.502;9.860;2023-03-01T12:08:15;3.00;;;2.80;;
71288;SDS011;59068;52.502;9.860;2023-03-01T12:13:56;3.10;;;2.80;;
71288;SDS011;59068;52.502;9.860;2023-03-01T12:19:18;3.37;;;2.73;;
71288;SDS011;59068;52.502;9.860;2023-03-01T12:22:09;4.23;;;2.57;;
71288;SDS011;59068;52.502;9.860;2023-03-01T12:30:17;3.33;;;2.70;;
71288;SDS011;59068;52.502;9.860;2023-03-01T12:43:54;2.77;;;2.57;;
71288;SDS011;59068;52.502;9.860;2023-03-01T12:52:40;3.63;;;2.57;;
71288;SDS011;59068;52.502;9.860;2023-03-01T12:54:51;3.33;;;2.30;;
71288;SDS011;59068;52.502;9.860;2023-03-01T12:57:21;3.53;;;2.60;;
71288;SDS011;59068;52.502;9.860;2023-03-01T12:59:59;2.80;;;2.40;;
71288;SDS011;59068;52.502;9.860;2023-03-01T13:02:41;3.93;;;2.60;;
71288;SDS011;59068;52.502;9.860;2023-03-01T13:17:46;3.53;;;2.40;;
71288;SDS011;59068;52.502;9.860;2023-03-01T13:20:14;2.30;;;2.03;;
71288;SDS011;59068;52.502;9.860;2023-03-01T13:22:41;2.63;;;2.27;;
71288;SDS011;59068;52.502;9.860;2023-03-01T13:25:12;2.47;;;1.80;;
71288;SDS011;59068;52.502;9.860;2023-03-01T13:27:42;3.43;;;2.33;;
71288;SDS011;59068;52.502;9.860;2023-03-01T13:35:48;2.73;;;2.53;;
71288;SDS011;59068;52.502;9.860;2023-03-01T13:41:15;3.33;;;2.07;;
71288;SDS011;59068;52.502;9.860;2023-03-01T13:43:43;2.37;;;1.80;;
71288;SDS011;59068;52.502;9.860;2023-03-01T13:48:49;1.67;;;1.47;;
71288;SDS011;59068;52.502;9.860;2023-03-01T13:51:19;2.00;;;1.60;;
71288;SDS011;59068;52.502;9.860;2023-03-01T13:53:47;2.20;;;1.90;;
71288;SDS011;59068;52.502;9.860;2023-03-01T13:56:20;2.00;;;1.63;;
71288;SDS011;59068;52.502;9.860;2023-03-01T14:01:24;4.13;;;2.20;;
71288;SDS011;59068;52.502;9.860;2023-03-01T14:03:57;2.17;;;1.97;;
71288;SDS011;59068;52.502;9.860;2023-03-01T14:06:30;1.87;;;1.70;;
71288;SDS011;59068;52.502;9.860;2023-03-01T14:09:02;1.73;;;1.63;;
71288;SDS011;59068;52.502;9.860;2023-03-01T14:19:43;2.87;;;2.20;;
71288;SDS011;59068;52.502;9.860;2023-03-01T14:22:21;4.37;;;2.20;;
71288;SDS011;59068;52.502;9.860;2023-03-01T14:24:56;2.40;;;2.10;;
71288;SDS011;59068;52.502;9.860;2023-03-01T14:27:25;2.40;;;1.90;;
71288;SDS011;59068;52.502;9.860;2023-03-01T14:29:56;3.47;;;2.23;;
71288;SDS011;59068;52.502;9.860;2023-03-01T14:32:30;3.37;;;1.80;;
71288;SDS011;59068;52.502;9.860;2023-03-01T14:34:57;2.40;;;1.60;;
71288;SDS011;59068;52.502;9.860;2023-03-01T14:39:49;3.33;;;1.63;;
71288;SDS011;59068;52.502;9.860;2023-03-01T14:42:15;1.70;;;1.40;;
71288;SDS011;59068;52.502;9.860;2023-03-01T14:44:42;1.57;;;1.07;;
71288;SDS011;59068;52.502;9.860;2023-03-01T14:47:12;1.20;;;1.10;;
71288;SDS011;59068;52.502;9.860;2023-03-01T14:49:53;1.27;;;1.07;;
71288;SDS011;59068;52.502;9.860;2023-03-01T14:52:25;1.70;;;1.40;;
71288;SDS011;59068;52.502;9.860;2023-03-01T14:54:55;2.20;;;1.50;;
71288;SDS011;59068;52.502;9.860;2023-03-01T14:57:21;1.57;;;1.43;;
71288;SDS011;59068;52.502;9.860;2023-03-01T14:59:51;1.40;;;1.30;;
71288;SDS011;59068;52.502;9.860;2023-03-01T15:02:19;1.70;;;1.40;;
71288;SDS011;59068;52.502;9.860;2023-03-01T15:04:48;2.63;;;1.33;;
71288;SDS011;59068;52.502;9.860;2023-03-01T15:07:15;1.93;;;1.50;;
71288;SDS011;59068;52.502;9.860;2023-03-01T15:09:41;1.40;;;1.30;;
71288;SDS011;59068;52.502;9.860;2023-03-01T15:14:54;2.60;;;1.10;;
71288;SDS011;59068;52.502;9.860;2023-03-01T15:19:57;1.07;;;0.97;;
71288;SDS011;59068;52.502;9.860;2023-03-01T15:22:24;1.07;;;1.03;;
71288;SDS011;59068;52.502;9.860;2023-03-01T15:24:51;2.10;;;1.50;;
71288;SDS011;59068;52.502;9.860;2023-03-01T15:27:19;2.40;;;1.10;;
71288;SDS011;59068;52.502;9.860;2023-03-01T15:29:51;2.40;;;1.60;;
71288;SDS011;59068;52.502;9.860;2023-03-01T15:32:26;3.03;;;1.20;;
71288;SDS011;59068;52.502;9.860;2023-03-01T15:34:52;3.03;;;1.57;;
71288;SDS011;59068;52.502;9.860;2023-03-01T15:40:02;1.90;;;1.57;;
71288;SDS011;59068;52.502;9.860;2023-03-01T15:47:40;2.77;;;1.40;;
71288;SDS011;59068;52.502;9.860;2023-03-01T15:50:14;1.37;;;1.10;;
71288;SDS011;59068;52.502;9.860;2023-03-01T15:52:45;1.57;;;1.00;;
71288;SDS011;59068;52.502;9.860;2023-03-01T15:55:15;1.20;;;1.07;;
71288;SDS011;59068;52.502;9.860;2023-03-01T15:57:42;2.07;;;1.20;;
71288;SDS011;59068;52.502;9.860;2023-03-01T16:00:09;1.87;;;1.30;;
71288;SDS011;59068;52.502;9.860;2023-03-01T16:02:38;1.20;;;1.10;;
71288;SDS011;59068;52.502;9.860;2023-03-01T16:05:05;1.40;;;1.00;;
71288;SDS011;59068;52.502;9.860;2023-03-01T16:07:30;1.90;;;1.20;;
71288;SDS011;59068;52.502;9.860;2023-03-01T16:09:56;1.23;;;1.10;;
71288;SDS011;59068;52.502;9.860;2023-03-01T16:12:22;1.23;;;1.13;;
71288;SDS011;59068;52.502;9.860;2023-03-01T16:14:49;1.30;;;1.00;;
71288;SDS011;59068;52.502;9.860;2023-03-01T16:17:14;1.40;;;1.10;;
71288;SDS011;59068;52.502;9.860;2023-03-01T16:19:40;3.03;;;1.33;;
71288;SDS011;59068;52.502;9.860;2023-03-01T16:22:06;2.10;;;1.37;;
71288;SDS011;59068;52.502;9.860;2023-03-01T16:24:31;1.50;;;1.40;;
71288;SDS011;59068;52.502;9.860;2023-03-01T16:26:57;2.27;;;1.60;;
71288;SDS011;59068;52.502;9.860;2023-03-01T16:29:23;1.57;;;1.27;;
71288;SDS011;59068;52.502;9.860;2023-03-01T16:31:48;2.00;;;1.80;;
71288;SDS011;59068;52.502;9.860;2023-03-01T16:34:13;3.60;;;2.00;;
71288;SDS011;59068;52.502;9.860;2023-03-01T16:36:39;2.67;;;1.50;;
71288;SDS011;59068;52.502;9.860;2023-03-01T16:39:08;6.80;;;1.40;;
71288;SDS011;59068;52.502;9.860;2023-03-01T16:41:34;1.63;;;1.27;;
71288;SDS011;59068;52.502;9.860;2023-03-01T16:43:59;1.53;;;1.17;;
71288;SDS011;59068;52.502;9.860;2023-03-01T16:46:26;2.03;;;1.27;;
71288;SDS011;59068;52.502;9.860;2023-03-01T16:48:53;1.87;;;1.17;;
71288;SDS011;59068;52.502;9.860;2023-03-01T16:51:19;2.77;;;1.47;;
71288;SDS011;59068;52.502;9.860;2023-03-01T16:53:45;1.27;;;1.17;;
71288;SDS011;59068;52.502;9.860;2023-03-01T16:56:11;1.40;;;1.30;;
71288;SDS011;59068;52.502;9.860;2023-03-01T16:58:37;2.23;;;1.27;;
71288;SDS011;59068;52.502;9.860;2023-03-01T17:03:35;1.40;;;1.20;;